Los Juries, Argentina
Current Conditions -  °F | °C
As of 5:00 PM on Wednesday 28 Jan 2015 (Local Time) from SARE Reporting Station
Thunderstorm Thunderstorm  
Wind Chill: 82°   Ceiling: 2500
Heat Index: 89°   Visibility: 5mi
Dew Point: 75°   Wind: 8mph
Humidity: 79%   Direction: 70°ENE
Pressure: 29.62"   Gusts: NA
Location:  28.47°S, 62.1°W
Report Text: SARE 282000Z 07007KT 8000 TS BKN025 BKN045 FEW056CB BKN200 28/24 Q1003 RE-RA
Loading
Personal Weather Stations






























Interactive Weather Map New forecast layout! Learn more

10-Day Weather Forecast

Advertisements
Track Severe Weather on mobile